Time;durP1;ratioP1;P1;durP2;ratioP2;P2;SDS_P1;SDS_P2;PMS_P1;PMS_P2;Temp;Humidity;BMP_temperature;BMP_pressure;BME280_temperature;BME280_humidity;BME280_pressure;Samples;Min_cycle;Max_cycle;Signal;HPM_P1;HPM_P2
2024/03/23 00:00:55;;;;;;;49.70;19.50;;;;;;;1.56;79.77;99353.96;79675;1294;3012791;-68
2024/03/23 00:03:23;;;;;;;49.50;21.90;;;;;;;1.44;79.51;99348.92;78437;1298;3026654;-68
2024/03/23 00:05:50;;;;;;;48.40;20.80;;;;;;;1.27;79.82;99345.89;79639;1298;3013426;-67
2024/03/23 00:08:16;;;;;;;55.70;26.00;;;;;;;0.96;81.28;99350.94;79660;1298;3011358;-67
2024/03/23 00:10:44;;;;;;;67.60;27.00;;;;;;;0.79;81.76;99349.77;78645;1295;3067465;-67
2024/03/23 00:13:11;;;;;;;64.40;27.30;;;;;;;0.68;82.66;99350.20;79644;1298;3013767;-69
2024/03/23 00:15:37;;;;;;;81.10;31.10;;;;;;;0.63;82.68;99346.51;79746;1295;3013879;-68
2024/03/23 00:18:05;;;;;;;74.90;30.80;;;;;;;0.55;83.13;99340.83;78457;1295;3025655;-68
2024/03/23 00:20:33;;;;;;;65.00;27.80;;;;;;;0.48;83.88;99341.11;79649;1295;3011743;-68
2024/03/23 00:23:00;;;;;;;46.70;19.80;;;;;;;0.46;84.19;99341.17;79629;1298;3012741;-68
2024/03/23 00:25:28;;;;;;;45.10;18.40;;;;;;;1.04;82.78;99346.27;78478;1295;3069839;-68
2024/03/23 00:27:54;;;;;;;54.20;19.40;;;;;;;1.37;80.92;99347.73;79709;1296;3013169;-67
2024/03/23 00:30:21;;;;;;;52.80;19.80;;;;;;;1.44;80.11;99339.44;79599;1296;3011519;-68
2024/03/23 00:32:49;;;;;;;55.30;20.80;;;;;;;1.29;80.20;99333.59;78429;1294;3025807;-69
2024/03/23 00:35:16;;;;;;;50.00;20.80;;;;;;;1.07;80.97;99333.25;79609;1298;3013584;-67
2024/03/23 00:37:42;;;;;;;51.60;21.40;;;;;;;0.88;81.82;99333.18;79711;1298;3012945;-70
2024/03/23 00:40:10;;;;;;;50.20;20.60;;;;;;;0.69;82.50;99333.26;78553;1298;3027428;-69
2024/03/23 00:42:37;;;;;;;45.20;19.80;;;;;;;0.57;83.13;99332.14;79710;1298;3011713;-69
2024/03/23 00:45:03;;;;;;;49.40;22.30;;;;;;;0.55;83.57;99331.52;79581;1298;3011938;-68
2024/03/23 00:47:31;;;;;;;52.80;22.50;;;;;;;0.50;84.01;99331.44;78557;1298;3028468;-70
2024/03/23 00:49:58;;;;;;;59.80;24.50;;;;;;;0.46;84.11;99330.84;79599;1298;3013471;-68
2024/03/23 00:52:25;;;;;;;57.80;22.40;;;;;;;0.50;84.11;99333.34;79747;1298;3012980;-69
2024/03/23 00:54:52;;;;;;;50.00;20.80;;;;;;;1.03;82.94;99330.58;78539;1298;3028540;-68
2024/03/23 00:57:19;;;;;;;57.90;23.40;;;;;;;1.55;80.46;99332.77;79874;1294;3018960;-68
2024/03/23 00:59:46;;;;;;;56.20;23.30;;;;;;;1.57;79.71;99335.81;79609;1295;3011582;-70
2024/03/23 01:02:13;;;;;;;55.70;23.70;;;;;;;1.45;79.89;99335.60;78431;1298;3026512;-68
2024/03/23 01:04:40;;;;;;;63.20;26.70;;;;;;;1.26;80.59;99335.38;79644;1298;3013165;-68
2024/03/23 01:07:07;;;;;;;66.00;26.90;;;;;;;1.12;80.86;99333.81;79653;1295;3013100;-70
2024/03/23 01:09:35;;;;;;;61.40;24.80;;;;;;;0.96;81.51;99336.98;78514;1298;3028640;-69
2024/03/23 01:12:01;;;;;;;41.10;19.80;;;;;;;0.83;81.93;99336.90;80241;1295;3011353;-70
2024/03/23 01:14:28;;;;;;;68.80;26.80;;;;;;;0.67;82.87;99337.45;80606;1294;3011716;-68
2024/03/23 01:16:56;;;;;;;71.80;25.40;;;;;;;0.62;83.18;99331.52;79907;1295;3026204;-69
2024/03/23 01:19:23;;;;;;;53.00;23.00;;;;;;;0.52;84.11;99332.08;81717;1295;3013461;-70
2024/03/23 01:21:49;;;;;;;57.40;22.70;;;;;;;0.52;83.89;99334.16;81518;1294;3011433;-69
2024/03/23 01:24:17;;;;;;;38.00;17.30;;;;;;;0.53;84.06;99330.86;79243;1298;3026688;-70
2024/03/23 01:26:44;;;;;;;45.20;17.00;;;;;;;0.97;83.19;99330.56;79628;1295;3013483;-68
2024/03/23 01:29:11;;;;;;;42.20;17.50;;;;;;;1.43;81.08;99325.29;79540;1298;3011490;-68
2024/03/23 01:31:39;;;;;;;50.60;20.30;;;;;;;1.46;80.16;99329.36;78463;1294;3026561;-69
2024/03/23 01:34:05;;;;;;;38.70;18.30;;;;;;;1.35;80.13;99323.08;79589;1298;3011603;-68
2024/03/23 01:36:32;;;;;;;35.60;16.70;;;;;;;1.21;80.57;99322.05;79728;1297;3012692;-69
2024/03/23 01:39:00;;;;;;;41.90;17.20;;;;;;;1.11;80.94;99320.91;78419;1295;3025862;-69
2024/03/23 01:41:26;;;;;;;36.20;16.00;;;;;;;0.96;81.62;99316.61;79708;1295;3018885;-69
2024/03/23 01:43:54;;;;;;;33.90;16.80;;;;;;;0.91;81.74;99313.64;79676;1298;3011869;-69
2024/03/23 01:46:22;;;;;;;34.80;17.00;;;;;;;0.79;82.27;99313.20;78538;1298;3052923;-68
2024/03/23 01:48:49;;;;;;;36.70;16.40;;;;;;;0.78;82.37;99310.31;79721;1298;3012832;-69
2024/03/23 01:51:15;;;;;;;36.00;15.10;;;;;;;0.76;82.72;99310.02;79488;1300;3011699;-66
2024/03/23 01:53:43;;;;;;;30.40;15.10;;;;;;;0.74;82.83;99305.23;78489;1298;3026090;-66
2024/03/23 01:56:10;;;;;;;20.60;9.80;;;;;;;0.68;82.98;99302.59;79364;1296;3013247;-65
2024/03/23 01:58:37;;;;;;;21.20;10.90;;;;;;;1.25;82.31;99300.19;79552;1295;3013203;-65
2024/03/23 02:01:05;;;;;;;25.80;12.40;;;;;;;1.81;79.44;99301.52;78283;1301;3026940;-67
2024/03/23 02:03:32;;;;;;;30.80;12.70;;;;;;;1.82;78.60;99297.85;79749;1294;3013839;-68
2024/03/23 02:05:59;;;;;;;23.80;13.00;;;;;;;1.70;78.52;99296.98;79614;1295;3011551;-68
2024/03/23 02:08:27;;;;;;;27.30;14.40;;;;;;;1.50;79.00;99296.13;78874;1298;3068076;-65
2024/03/23 02:10:53;;;;;;;29.70;14.60;;;;;;;1.34;79.78;99294.96;79699;1295;3018482;-64
2024/03/23 02:13:20;;;;;;;28.50;14.70;;;;;;;1.24;80.34;99291.61;79459;1294;3011618;-66
2024/03/23 02:15:47;;;;;;;25.00;14.70;;;;;;;1.16;80.25;99290.41;78134;1295;3026028;-67
2024/03/23 02:18:14;;;;;;;30.90;13.40;;;;;;;1.06;80.88;99291.19;79423;1301;3013220;-67
2024/03/23 02:20:41;;;;;;;31.30;15.30;;;;;;;0.88;81.44;99287.14;79674;1300;3013948;-66
2024/03/23 02:23:16;;;;;;;23.40;14.30;;;;;;;0.81;82.22;99289.36;78286;1300;3026685;-67
2024/03/23 02:25:45;;;;;;;30.90;14.70;;;;;;;0.79;82.52;99290.63;79046;1295;3012002;-67
2024/03/23 02:28:11;;;;;;;29.40;14.80;;;;;;;0.77;82.22;99290.52;79468;1299;3013221;-69
2024/03/23 02:30:38;;;;;;;20.70;11.00;;;;;;;0.79;82.48;99292.35;79423;1301;3011657;-71
2024/03/23 02:33:06;;;;;;;26.30;13.80;;;;;;;1.29;81.75;99290.25;78278;1295;3027730;-66
2024/03/23 02:35:33;;;;;;;27.30;12.90;;;;;;;1.74;79.35;99290.98;79468;1300;3012958;-69
2024/03/23 02:37:59;;;;;;;30.30;13.90;;;;;;;1.89;78.41;99290.77;79632;1299;3011517;-66
2024/03/23 02:40:27;;;;;;;27.00;14.40;;;;;;;1.84;78.10;99287.60;78393;1296;3025996;-68
2024/03/23 02:42:54;;;;;;;29.70;14.70;;;;;;;1.69;78.38;99285.61;79478;1299;3014932;-70
2024/03/23 02:45:21;;;;;;;30.90;15.70;;;;;;;1.60;78.52;99286.35;79432;1299;3012370;-68
2024/03/23 02:47:51;;;;;;;27.60;14.40;;;;;;;1.38;79.23;99280.55;78277;1296;3027244;-66
2024/03/23 02:50:19;;;;;;;27.30;15.90;;;;;;;1.30;79.73;99277.14;79703;1294;3013922;-70
2024/03/23 02:52:48;;;;;;;33.80;16.40;;;;;;;1.14;80.22;99283.39;79273;1295;3011836;-68
2024/03/23 02:55:15;;;;;;;30.10;15.70;;;;;;;1.01;81.01;99278.89;79649;1295;3018366;-69
2024/03/23 02:57:41;;;;;;;30.30;15.70;;;;;;;1.04;81.38;99279.35;79653;1295;3011602;-68
2024/03/23 03:00:10;;;;;;;29.50;16.70;;;;;;;1.03;81.40;99281.78;78393;1294;3026606;-68
2024/03/23 03:02:37;;;;;;;30.50;16.00;;;;;;;0.99;81.61;99284.27;79717;1294;3013226;-69
2024/03/23 03:05:05;;;;;;;32.00;16.10;;;;;;;1.07;81.68;99283.23;79542;1295;3011554;-68
2024/03/23 03:07:33;;;;;;;31.70;17.70;;;;;;;1.08;81.36;99285.44;78635;1295;3052651;-69
2024/03/23 03:10:00;;;;;;;26.80;14.30;;;;;;;1.09;81.25;99282.15;79762;1295;3012808;-66
2024/03/23 03:12:27;;;;;;;28.80;14.70;;;;;;;1.57;79.95;99286.60;79667;1295;3011590;-67
2024/03/23 03:14:55;;;;;;;24.10;14.10;;;;;;;2.20;77.87;99283.83;78455;1298;3028453;-67
2024/03/23 03:17:21;;;;;;;25.80;14.50;;;;;;;2.26;76.87;99285.06;79585;1294;3013074;-67
2024/03/23 03:19:48;;;;;;;26.90;14.50;;;;;;;2.20;76.67;99288.14;79751;1294;3011847;-66
2024/03/23 03:22:16;;;;;;;28.90;16.20;;;;;;;2.00;77.00;99290.63;78478;1298;3025973;-68
2024/03/23 03:24:42;;;;;;;29.00;17.50;;;;;;;1.79;77.75;99295.53;79648;1298;3018492;-67
2024/03/23 03:27:09;;;;;;;27.70;16.10;;;;;;;1.58;78.44;99296.93;79646;1298;3011644;-68
2024/03/23 03:29:37;;;;;;;33.40;19.70;;;;;;;1.37;79.24;99296.11;78405;1298;3027358;-69
2024/03/23 03:32:04;;;;;;;32.40;17.70;;;;;;;1.22;80.01;99300.80;79859;1295;3013539;-70
2024/03/23 03:34:31;;;;;;;30.00;17.00;;;;;;;1.07;80.74;99300.48;79735;1298;3011501;-68
2024/03/23 03:36:59;;;;;;;41.60;20.00;;;;;;;0.97;81.26;99299.84;78324;1298;3026287;-67
2024/03/23 03:39:26;;;;;;;31.90;18.40;;;;;;;0.95;81.39;99297.14;79738;1295;3013310;-67
2024/03/23 03:41:52;;;;;;;39.10;19.90;;;;;;;0.97;81.45;99293.13;79660;1294;3011614;-67
2024/03/23 03:44:20;;;;;;;35.40;19.50;;;;;;;0.90;81.61;99290.39;78501;1295;3055259;-66
2024/03/23 03:46:47;;;;;;;37.90;19.30;;;;;;;0.95;81.70;99283.87;79642;1298;3014776;-68
2024/03/23 03:49:14;;;;;;;32.10;15.50;;;;;;;0.96;81.64;99285.05;79573;1298;3011487;-67
2024/03/23 03:51:42;;;;;;;38.80;17.50;;;;;;;1.49;80.63;99288.19;78436;1298;3025556;-66
2024/03/23 03:54:08;;;;;;;34.00;16.40;;;;;;;2.21;78.33;99286.89;79769;1295;3012900;-68
2024/03/23 03:56:35;;;;;;;34.10;16.50;;;;;;;2.50;77.20;99290.54;79733;1298;3011938;-68
2024/03/23 03:59:03;;;;;;;33.80;16.80;;;;;;;2.50;76.80;99287.42;78496;1298;3028598;-68
2024/03/23 04:01:29;;;;;;;33.90;17.80;;;;;;;2.47;77.04;99287.85;79875;1295;3019101;-68
2024/03/23 04:03:56;;;;;;;31.80;17.10;;;;;;;2.38;76.82;99288.48;79653;1295;3013013;-67
2024/03/23 04:06:24;;;;;;;34.80;15.90;;;;;;;2.27;76.45;99291.91;78527;1298;3025945;-68
2024/03/23 04:08:50;;;;;;;33.20;16.90;;;;;;;2.17;76.36;99289.95;79630;1294;3013599;-67
2024/03/23 04:11:17;;;;;;;37.20;17.90;;;;;;;2.12;76.18;99292.88;79640;1298;3011676;-67
2024/03/23 04:13:45;;;;;;;38.60;19.10;;;;;;;2.00;76.47;99294.95;78302;1298;3027549;-68
2024/03/23 04:16:11;;;;;;;44.20;18.10;;;;;;;1.96;76.69;99295.06;79679;1298;3018986;-67
2024/03/23 04:18:38;;;;;;;38.00;19.50;;;;;;;1.96;76.84;99293.48;79679;1298;3011696;-66
2024/03/23 04:21:07;;;;;;;31.80;16.30;;;;;;;1.96;77.11;99295.74;78407;1294;3026398;-68
2024/03/23 04:23:33;;;;;;;28.20;15.90;;;;;;;1.90;77.49;99299.19;79816;1294;3013294;-68
2024/03/23 04:26:04;;;;;;;29.80;16.40;;;;;;;1.96;77.38;99293.15;79666;1295;3011871;-66
2024/03/23 04:28:32;;;;;;;31.00;16.00;;;;;;;2.04;76.94;99294.83;78411;1295;3056199;-67
2024/03/23 04:31:03;;;;;;;30.20;16.00;;;;;;;2.13;77.11;99290.39;79361;1295;3415399;-67
2024/03/23 04:33:32;;;;;;;33.60;16.20;;;;;;;2.25;76.42;99289.56;78462;1294;3050088;-68
2024/03/23 04:35:58;;;;;;;35.80;16.90;;;;;;;2.31;76.09;99291.45;79839;1295;3020892;-68
2024/03/23 04:38:25;;;;;;;32.30;17.30;;;;;;;2.34;75.64;99292.57;79481;1299;3011499;-67
2024/03/23 04:40:57;;;;;;;33.20;16.50;;;;;;;2.40;75.68;99293.63;78397;1295;3027499;-68
2024/03/23 04:43:23;;;;;;;34.40;18.20;;;;;;;2.46;75.66;99296.55;79621;1294;3013266;-66
2024/03/23 04:45:51;;;;;;;42.80;19.40;;;;;;;2.48;75.62;99290.09;78413;1300;3025849;-66
2024/03/23 04:48:22;;;;;;;39.60;18.90;;;;;;;2.49;75.81;99291.26;79371;1294;3013456;-67
2024/03/23 04:50:51;;;;;;;39.20;19.40;;;;;;;2.56;76.00;99293.63;78352;1301;3051255;-69
2024/03/23 04:53:18;;;;;;;38.00;19.60;;;;;;;2.65;75.57;99298.21;79520;1297;3013684;-68
2024/03/23 04:55:45;;;;;;;40.30;19.60;;;;;;;2.68;75.38;99293.63;79612;1295;3013234;-69
2024/03/23 05:00:18;;;;;;;45.10;21.90;;;;;;;2.73;75.34;99297.09;80223;1302;3013244;-67
2024/03/23 05:02:47;;;;;;;33.10;18.40;;;;;;;2.79;75.43;99292.60;78903;1304;3013874;-68
2024/03/23 05:05:14;;;;;;;36.00;18.80;;;;;;;2.89;74.98;99295.58;79346;1302;3013644;-67
2024/03/23 05:07:41;;;;;;;33.60;17.90;;;;;;;2.98;74.83;99301.16;79204;1304;3011362;-69
2024/03/23 05:10:10;;;;;;;33.80;17.90;;;;;;;2.98;74.05;99303.23;77879;1301;3025788;-66
2024/03/23 05:12:37;;;;;;;37.90;19.40;;;;;;;2.98;73.90;99302.70;79354;1301;3014572;-68
2024/03/23 05:15:10;;;;;;;34.00;16.90;;;;;;;2.98;73.99;99304.80;79400;1297;3013071;-65
2024/03/23 05:17:38;;;;;;;42.00;20.30;;;;;;;3.05;74.02;99307.52;78279;1298;3049358;-67
2024/03/23 05:20:09;;;;;;;37.70;19.10;;;;;;;3.10;73.88;99307.70;79757;1298;3013110;-68
2024/03/23 05:22:37;;;;;;;34.70;18.00;;;;;;;3.22;73.47;99305.27;78241;1301;3053239;-66
2024/03/23 05:25:04;;;;;;;32.40;18.10;;;;;;;3.33;73.21;99303.48;79494;1300;3013441;-67
2024/03/23 05:27:32;;;;;;;36.00;18.70;;;;;;;3.36;72.62;99298.89;79561;1298;3011322;-69
2024/03/23 05:30:00;;;;;;;36.30;18.30;;;;;;;3.39;72.26;99302.08;78338;1301;3056129;-65
2024/03/23 05:32:27;;;;;;;34.40;17.90;;;;;;;3.50;72.36;99298.56;80273;1298;3012975;-70
2024/03/23 05:34:56;;;;;;;38.80;19.10;;;;;;;3.60;72.09;99297.02;80288;1301;3011567;-66
2024/03/23 05:37:24;;;;;;;41.70;18.90;;;;;;;3.77;72.42;99292.98;79287;1301;3052029;-67
2024/03/23 05:39:51;;;;;;;38.30;18.00;;;;;;;3.94;71.98;99293.77;79595;1299;3011637;-67
2024/03/23 05:42:18;;;;;;;33.90;17.60;;;;;;;4.05;71.28;99291.60;79504;1298;3011578;-69
2024/03/23 05:44:46;;;;;;;33.70;17.10;;;;;;;4.13;70.79;99296.89;78071;1301;3026569;-69
2024/03/23 05:47:14;;;;;;;34.40;17.80;;;;;;;4.28;71.04;99298.58;79461;1301;3013611;-69
2024/03/23 05:49:41;;;;;;;38.30;20.10;;;;;;;4.41;70.45;99295.48;79382;1299;3011489;-67
2024/03/23 05:52:10;;;;;;;39.20;19.60;;;;;;;4.50;70.36;99297.23;78544;1298;3052802;-69
2024/03/23 05:54:36;;;;;;;40.50;21.90;;;;;;;4.58;70.02;99290.67;79654;1301;3013645;-67
2024/03/23 05:57:03;;;;;;;43.20;22.90;;;;;;;4.65;70.07;99294.57;79331;1299;3011799;-68
2024/03/23 05:59:31;;;;;;;42.90;21.80;;;;;;;4.66;69.58;99295.92;78245;1301;3026590;-67
2024/03/23 06:01:58;;;;;;;42.50;22.10;;;;;;;4.68;69.63;99296.36;79353;1298;3015745;-67
2024/03/23 06:04:24;;;;;;;40.50;22.50;;;;;;;4.77;69.54;99297.08;79578;1297;3013234;-65
2024/03/23 06:06:52;;;;;;;41.90;22.80;;;;;;;4.87;69.43;99292.84;78145;1301;3026400;-68
2024/03/23 06:09:19;;;;;;;42.30;22.20;;;;;;;4.95;68.99;99295.11;79610;1297;3013050;-68
2024/03/23 06:11:46;;;;;;;43.60;21.50;;;;;;;5.06;69.28;99292.45;79363;1298;3013667;-69
2024/03/23 06:14:14;;;;;;;39.60;21.90;;;;;;;5.15;68.81;99292.91;78264;1303;3055787;-68
2024/03/23 06:16:41;;;;;;;43.50;22.30;;;;;;;5.24;68.59;99294.48;79652;1299;3013226;-66
2024/03/23 06:19:08;;;;;;;41.00;22.40;;;;;;;5.34;68.23;99292.86;79420;1299;3011779;-66
2024/03/23 06:21:36;;;;;;;42.70;21.50;;;;;;;5.43;68.36;99289.36;78329;1304;3029005;-69
2024/03/23 06:24:02;;;;;;;44.20;22.40;;;;;;;5.46;67.71;99290.60;79929;1301;3013387;-66
2024/03/23 06:26:29;;;;;;;44.30;22.70;;;;;;;5.50;67.69;99289.57;79443;1298;3011659;-65
2024/03/23 06:28:57;;;;;;;47.70;23.60;;;;;;;5.61;67.62;99290.48;78282;1298;3025070;-68
2024/03/23 06:31:24;;;;;;;41.90;23.00;;;;;;;5.68;67.18;99292.61;79805;1299;3012974;-68
2024/03/23 06:33:50;;;;;;;48.80;24.80;;;;;;;5.82;67.31;99291.84;79874;1298;3012811;-70
2024/03/23 06:36:19;;;;;;;49.40;26.20;;;;;;;5.89;66.55;99288.73;78337;1298;3025434;-69
2024/03/23 06:38:46;;;;;;;45.40;26.30;;;;;;;5.93;66.48;99290.64;79649;1298;3014319;-69
2024/03/23 06:41:13;;;;;;;52.20;27.80;;;;;;;5.94;66.43;99292.88;79551;1297;3012127;-69
2024/03/23 06:43:41;;;;;;;50.80;29.30;;;;;;;6.01;66.55;99286.87;78799;1297;3056960;-67
2024/03/23 06:46:07;;;;;;;50.80;27.60;;;;;;;6.13;66.59;99288.23;80188;1298;3012792;-67
2024/03/23 06:48:34;;;;;;;44.20;26.70;;;;;;;6.20;66.44;99287.59;79525;1299;3011860;-66
2024/03/23 06:51:02;;;;;;;45.90;26.30;;;;;;;6.29;66.11;99287.68;78639;1297;3025816;-65
2024/03/23 06:53:29;;;;;;;48.30;26.30;;;;;;;6.34;64.79;99290.59;79777;1297;3013024;-68
2024/03/23 06:55:55;;;;;;;56.60;26.10;;;;;;;6.33;64.23;99293.23;79484;1298;3013516;-62
2024/03/23 06:58:24;;;;;;;53.40;27.30;;;;;;;6.32;63.79;99292.09;78201;1297;3025708;-67
2024/03/23 07:00:51;;;;;;;53.50;27.10;;;;;;;6.17;64.04;99293.27;79582;1301;3013026;-75
2024/03/23 07:03:17;;;;;;;41.00;24.20;;;;;;;6.07;64.38;99294.42;79401;1301;3011603;-72
2024/03/23 07:05:46;;;;;;;43.30;22.70;;;;;;;6.11;64.36;99291.80;78138;1301;3053387;-68
2024/03/23 07:08:12;;;;;;;43.00;22.70;;;;;;;6.16;64.14;99289.86;79397;1298;3013176;-64
2024/03/23 07:10:40;;;;;;;37.60;20.20;;;;;;;6.14;64.18;99291.66;79304;1296;3011769;-66
2024/03/23 07:13:08;;;;;;;40.40;19.20;;;;;;;6.12;63.96;99292.83;78350;1300;3056957;-66
2024/03/23 07:15:34;;;;;;;38.40;19.60;;;;;;;6.04;64.47;99294.55;79509;1298;3019071;-69
2024/03/23 07:18:01;;;;;;;34.40;18.20;;;;;;;6.16;63.01;99298.39;79385;1297;3011856;-69
2024/03/23 07:20:31;;;;;;;29.10;16.20;;;;;;;6.25;62.24;99295.50;78462;1299;3028526;-66
2024/03/23 07:22:57;;;;;;;27.10;15.30;;;;;;;6.41;61.81;99298.80;80965;1297;3012570;-65
2024/03/23 07:25:25;;;;;;;22.40;12.10;;;;;;;6.53;61.30;99299.45;79646;1297;3011561;-67
2024/03/23 07:27:53;;;;;;;28.10;16.00;;;;;;;6.36;60.90;99298.15;79262;1297;3056802;-67
2024/03/23 07:30:20;;;;;;;28.20;13.70;;;;;;;6.43;61.89;99303.56;79442;1298;3013413;-64
2024/03/23 07:32:47;;;;;;;32.00;14.30;;;;;;;6.53;61.41;99297.04;79156;1297;3011682;-65
2024/03/23 07:35:15;;;;;;;25.50;13.40;;;;;;;6.67;61.26;99294.47;78213;1301;3052620;-67
2024/03/23 07:37:42;;;;;;;23.10;13.80;;;;;;;6.66;60.85;99293.98;79393;1298;3013291;-67
2024/03/23 07:40:09;;;;;;;25.00;13.80;;;;;;;6.50;61.85;99298.38;79276;1301;3013246;-66
2024/03/23 07:42:37;;;;;;;27.40;14.90;;;;;;;6.45;61.57;99294.65;78282;1297;3057206;-68
2024/03/23 07:45:04;;;;;;;31.80;16.10;;;;;;;6.48;62.48;99291.69;79528;1298;3018595;-68
2024/03/23 07:47:36;;;;;;;31.00;16.50;;;;;;;6.69;62.20;99286.54;78927;1297;3011553;-66
2024/03/23 07:50:02;;;;;;;33.00;17.80;;;;;;;6.56;62.87;99287.85;79363;1301;3013006;-66
2024/03/23 07:52:29;;;;;;;34.70;18.50;;;;;;;6.34;63.85;99286.05;79554;1300;3011437;-67
2024/03/23 07:54:57;;;;;;;31.80;16.90;;;;;;;6.48;63.80;99288.73;77995;1301;3028786;-66
2024/03/23 07:57:24;;;;;;;33.00;16.40;;;;;;;6.55;63.69;99291.88;79214;1298;3011749;-67
2024/03/23 07:59:52;;;;;;;30.70;17.10;;;;;;;6.84;63.04;99286.19;79700;1297;3013089;-65
2024/03/23 08:02:20;;;;;;;36.20;17.20;;;;;;;6.85;62.75;99286.66;78088;1298;3053690;-66
2024/03/23 08:04:46;;;;;;;26.80;14.40;;;;;;;6.79;62.98;99287.98;79767;1298;3012726;-66
2024/03/23 08:07:13;;;;;;;27.60;15.90;;;;;;;7.14;62.62;99282.64;79210;1297;3011945;-65
2024/03/23 08:09:41;;;;;;;29.20;16.40;;;;;;;7.21;62.43;99282.80;78207;1300;3029568;-66
2024/03/23 08:12:07;;;;;;;33.50;17.50;;;;;;;7.15;62.86;99277.02;79176;1298;3013675;-66
2024/03/23 08:14:34;;;;;;;35.90;18.10;;;;;;;7.08;63.30;99275.10;79450;1300;3011820;-66
2024/03/23 08:17:02;;;;;;;31.00;16.60;;;;;;;7.24;63.22;99271.52;78238;1298;3029563;-64
2024/03/23 08:19:29;;;;;;;31.90;16.00;;;;;;;7.19;62.75;99267.55;79723;1301;3013183;-66
2024/03/23 08:21:55;;;;;;;32.40;14.80;;;;;;;7.37;62.24;99261.44;79616;1301;3011523;-68
2024/03/23 08:24:23;;;;;;;25.70;13.30;;;;;;;7.39;61.09;99265.91;78238;1301;3028242;-64
2024/03/23 08:26:50;;;;;;;21.60;12.70;;;;;;;7.27;61.14;99265.61;79363;1298;3018633;-64
2024/03/23 08:29:17;;;;;;;29.30;13.50;;;;;;;7.22;61.33;99262.52;79297;1301;3011560;-64
2024/03/23 08:31:45;;;;;;;23.20;13.20;;;;;;;7.23;61.76;99260.57;78090;1300;3029120;-65
2024/03/23 08:34:11;;;;;;;27.80;14.40;;;;;;;7.11;61.79;99265.56;79268;1298;3013262;-65
2024/03/23 08:36:38;;;;;;;23.30;12.80;;;;;;;6.97;62.25;99264.47;79749;1295;3012944;-65
2024/03/23 08:39:06;;;;;;;25.40;12.80;;;;;;;7.07;62.01;99261.75;78094;1298;3025555;-65
2024/03/23 08:41:33;;;;;;;28.80;13.90;;;;;;;7.07;61.93;99255.98;79229;1298;3013393;-68
2024/03/23 08:44:00;;;;;;;30.30;15.80;;;;;;;6.91;63.02;99256.92;79447;1297;3011681;-66
2024/03/23 08:46:28;;;;;;;31.00;13.50;;;;;;;7.29;62.76;99244.80;78815;1299;3026319;-69
2024/03/23 08:48:54;;;;;;;34.20;13.70;;;;;;;7.57;61.97;99240.91;79676;1316;3013837;-67
2024/03/23 08:51:21;;;;;;;23.80;13.60;;;;;;;7.62;61.34;99240.14;79861;1298;3013498;-67
2024/03/23 08:53:49;;;;;;;22.40;12.40;;;;;;;7.58;60.85;99238.96;78680;1295;3024981;-70
2024/03/23 08:56:16;;;;;;;19.10;11.10;;;;;;;7.41;60.59;99245.19;79476;1295;3013755;-67
2024/03/23 08:58:42;;;;;;;16.80;10.60;;;;;;;7.33;60.29;99236.73;79318;1295;3013295;-65
2024/03/23 09:01:14;;;;;;;25.10;13.70;;;;;;;7.17;60.48;99241.17;78399;1298;3026936;-67
2024/03/23 09:03:41;;;;;;;21.60;11.40;;;;;;;7.43;60.16;99231.04;79215;1295;3014126;-67
2024/03/23 09:06:09;;;;;;;22.70;12.90;;;;;;;7.51;59.95;99227.08;78123;1295;3027928;-70
2024/03/23 09:08:36;;;;;;;17.80;11.30;;;;;;;7.73;60.10;99219.53;79450;1301;3013476;-69
2024/03/23 09:11:10;;;;;;;19.80;10.80;;;;;;;7.80;58.97;99220.91;79407;1295;3013407;-69
2024/03/23 09:13:38;;;;;;;23.60;11.70;;;;;;;7.63;58.34;99217.77;78301;1299;3057213;-65
2024/03/23 09:16:06;;;;;;;19.40;10.40;;;;;;;7.93;58.42;99218.45;79244;1298;3012573;-67
2024/03/23 09:18:35;;;;;;;21.00;11.00;;;;;;;8.01;57.23;99220.80;79216;1301;3011426;-64
2024/03/23 09:21:04;;;;;;;20.20;10.50;;;;;;;8.20;57.15;99222.23;78071;1300;3052540;-66
2024/03/23 09:23:30;;;;;;;20.50;11.70;;;;;;;8.17;57.38;99217.68;79407;1301;3013375;-69
2024/03/23 09:25:57;;;;;;;21.20;12.00;;;;;;;8.14;58.87;99211.95;80207;1296;3011465;-71
2024/03/23 09:28:25;;;;;;;18.40;11.40;;;;;;;8.26;58.64;99216.12;79608;1296;3057597;-75
2024/03/23 09:30:51;;;;;;;25.40;11.50;;;;;;;8.32;58.43;99216.88;80263;1297;3013413;-69
2024/03/23 09:33:18;;;;;;;18.90;11.40;;;;;;;8.36;57.70;99214.91;79224;1301;3012285;-72
2024/03/23 09:35:47;;;;;;;19.60;11.00;;;;;;;8.19;57.53;99212.16;77889;1295;3028376;-70
2024/03/23 09:38:13;;;;;;;18.30;11.00;;;;;;;8.18;58.43;99212.23;80849;1298;3011846;-68
2024/03/23 09:40:41;;;;;;;17.60;10.90;;;;;;;8.38;58.29;99207.98;79717;1295;3012918;-71
2024/03/23 09:43:09;;;;;;;20.60;11.00;;;;;;;8.38;57.92;99203.62;78768;1301;3056219;-66
2024/03/23 09:45:40;;;;;;;18.80;10.30;;;;;;;8.58;57.17;99195.57;80626;1295;3013287;-65
2024/03/23 09:48:09;;;;;;;21.50;11.30;;;;;;;8.46;56.12;99195.71;79536;1297;3049801;-67
2024/03/23 09:50:38;;;;;;;16.30;10.70;;;;;;;8.59;56.15;99193.95;80070;1301;3012697;-69
2024/03/23 09:53:07;;;;;;;17.30;10.20;;;;;;;8.63;55.53;99196.15;79108;1295;3013204;-66
2024/03/23 09:55:37;;;;;;;20.80;10.80;;;;;;;8.56;55.95;99182.60;79417;1301;3013068;-70
2024/03/23 09:58:05;;;;;;;19.90;11.30;;;;;;;8.53;56.91;99185.57;78504;1295;3056338;-73
2024/03/23 10:00:33;;;;;;;21.80;11.60;;;;;;;8.36;57.32;99183.49;79379;1295;3013395;-68
2024/03/23 10:03:02;;;;;;;20.20;10.40;;;;;;;8.76;56.62;99174.42;79481;1295;3012959;-70
2024/03/23 10:05:34;;;;;;;25.00;10.50;;;;;;;8.89;55.98;99172.30;78113;1300;3053685;-66
2024/03/23 10:08:17;;;;;;;23.40;11.40;;;;;;;8.77;55.88;99170.43;79519;1295;3011561;-71
2024/03/23 10:10:45;;;;;;;20.50;11.70;;;;;;;8.62;56.73;99182.26;78362;1295;3069073;-69
2024/03/23 10:13:24;;;;;;;18.00;10.70;;;;;;;8.83;56.11;99170.38;79702;1294;3014691;-68
2024/03/23 10:15:57;;;;;;;21.90;11.30;;;;;;;8.98;55.32;99165.65;78389;1296;3049998;-68
2024/03/23 10:18:24;;;;;;;18.00;11.20;;;;;;;8.91;55.06;99168.86;79550;1295;3011648;-67
2024/03/23 10:21:05;;;;;;;15.00;9.40;;;;;;;9.18;54.89;99163.77;78262;1300;3049962;-67
2024/03/23 10:23:33;;;;;;;15.70;9.50;;;;;;;9.45;54.23;99165.51;78255;1301;3052863;-68
2024/03/23 10:26:21;;;;;;;19.60;10.50;;;;;;;9.60;53.63;99157.73;79515;1300;3015752;-73
2024/03/23 10:28:59;;;;;;;17.40;9.80;;;;;;;9.46;52.27;99153.21;78537;1295;3052853;-74
2024/03/23 10:31:28;;;;;;;15.20;9.50;;;;;;;9.40;52.81;99150.57;78252;1295;3056831;-69
2024/03/23 10:33:55;;;;;;;16.70;10.90;;;;;;;9.54;53.51;99147.29;79420;1295;3013737;-66
2024/03/23 10:36:22;;;;;;;15.90;10.10;;;;;;;9.84;53.53;99137.36;79297;1294;3011794;-74
2024/03/23 10:38:51;;;;;;;16.50;9.70;;;;;;;10.00;52.98;99135.36;78266;1295;3053181;-70
2024/03/23 10:41:18;;;;;;;15.80;8.30;;;;;;;9.85;51.68;99141.35;79428;1295;3013246;-67
2024/03/23 10:43:48;;;;;;;14.80;9.80;;;;;;;9.67;51.30;99145.61;79532;1295;3011911;-70
2024/03/23 10:46:15;;;;;;;16.10;10.70;;;;;;;9.72;53.07;99139.17;78371;1295;3056826;-71
2024/03/23 10:48:43;;;;;;;15.00;9.40;;;;;;;9.80;51.89;99136.61;79700;1295;3012910;-71
2024/03/23 10:51:10;;;;;;;12.60;8.20;;;;;;;9.86;50.83;99133.77;79252;1295;3011667;-70
2024/03/23 10:53:38;;;;;;;15.70;8.60;;;;;;;10.06;49.03;99125.21;78456;1301;3028695;-71
2024/03/23 10:56:05;;;;;;;18.20;11.10;;;;;;;10.18;50.90;99122.11;79307;1299;3018499;-71
2024/03/23 10:58:46;;;;;;;17.20;9.70;;;;;;;10.37;51.14;99116.38;79700;1300;3011855;-72
2024/03/23 11:01:15;;;;;;;13.70;8.00;;;;;;;10.28;50.28;99113.46;78314;1296;3056447;-66
2024/03/23 11:03:45;;;;;;;11.00;6.90;;;;;;;10.32;49.15;99114.77;79269;1295;3011866;-69
2024/03/23 11:06:35;;;;;;;15.60;7.10;;;;;;;10.50;47.37;99110.48;78163;1295;3053265;-66
2024/03/23 11:09:03;;;;;;;12.10;7.30;;;;;;;10.70;47.50;99110.02;78191;1297;3050178;-68
2024/03/23 11:11:32;;;;;;;11.70;6.30;;;;;;;10.78;48.43;99112.51;79388;1298;3012951;-69
2024/03/23 11:13:59;;;;;;;11.80;6.50;;;;;;;10.68;47.79;99108.06;79794;1295;3011761;-69